sensor_id;sensor_type;location;lat;lon;timestamp;P1;durP1;ratioP1;P2;durP2;ratioP2
19495;SDS011;9888;48.606;9.630;2022-08-19T00:00:57;39.00;;;32.87;;
19495;SDS011;9888;48.606;9.630;2022-08-19T00:03:25;39.90;;;31.43;;
19495;SDS011;9888;48.606;9.630;2022-08-19T00:05:52;41.10;;;32.80;;
19495;SDS011;9888;48.606;9.630;2022-08-19T00:08:20;40.77;;;31.40;;
19495;SDS011;9888;48.606;9.630;2022-08-19T00:10:48;40.20;;;30.60;;
19495;SDS011;9888;48.606;9.630;2022-08-19T00:13:16;39.10;;;31.37;;
19495;SDS011;9888;48.606;9.630;2022-08-19T00:15:44;36.27;;;30.73;;
19495;SDS011;9888;48.606;9.630;2022-08-19T00:18:11;37.40;;;30.47;;
19495;SDS011;9888;48.606;9.630;2022-08-19T00:20:39;36.87;;;29.80;;
19495;SDS011;9888;48.606;9.630;2022-08-19T00:23:07;38.03;;;30.20;;
19495;SDS011;9888;48.606;9.630;2022-08-19T00:25:35;38.60;;;31.03;;
19495;SDS011;9888;48.606;9.630;2022-08-19T00:28:03;40.23;;;30.90;;
19495;SDS011;9888;48.606;9.630;2022-08-19T00:30:33;39.70;;;30.90;;
19495;SDS011;9888;48.606;9.630;2022-08-19T00:33:00;38.63;;;30.23;;
19495;SDS011;9888;48.606;9.630;2022-08-19T00:35:29;41.87;;;31.97;;
19495;SDS011;9888;48.606;9.630;2022-08-19T00:38:02;36.13;;;29.93;;
19495;SDS011;9888;48.606;9.630;2022-08-19T00:40:32;39.20;;;31.50;;
19495;SDS011;9888;48.606;9.630;2022-08-19T00:42:59;40.73;;;31.97;;
19495;SDS011;9888;48.606;9.630;2022-08-19T00:45:26;41.67;;;31.63;;
19495;SDS011;9888;48.606;9.630;2022-08-19T00:47:57;41.10;;;30.50;;
19495;SDS011;9888;48.606;9.630;2022-08-19T00:50:29;41.30;;;30.87;;
19495;SDS011;9888;48.606;9.630;2022-08-19T00:52:58;42.80;;;31.80;;
19495;SDS011;9888;48.606;9.630;2022-08-19T00:55:29;41.20;;;32.27;;
19495;SDS011;9888;48.606;9.630;2022-08-19T00:58:00;43.57;;;32.23;;
19495;SDS011;9888;48.606;9.630;2022-08-19T01:00:32;38.60;;;31.27;;
19495;SDS011;9888;48.606;9.630;2022-08-19T01:03:07;43.53;;;33.43;;
19495;SDS011;9888;48.606;9.630;2022-08-19T01:05:39;40.63;;;30.73;;
19495;SDS011;9888;48.606;9.630;2022-08-19T01:08:11;38.13;;;29.10;;
19495;SDS011;9888;48.606;9.630;2022-08-19T01:10:43;40.77;;;32.83;;
19495;SDS011;9888;48.606;9.630;2022-08-19T01:13:16;40.07;;;31.37;;
19495;SDS011;9888;48.606;9.630;2022-08-19T01:15:46;41.27;;;30.87;;
19495;SDS011;9888;48.606;9.630;2022-08-19T01:18:23;38.70;;;30.13;;
19495;SDS011;9888;48.606;9.630;2022-08-19T01:20:54;39.43;;;31.60;;
19495;SDS011;9888;48.606;9.630;2022-08-19T01:23:24;42.13;;;32.70;;
19495;SDS011;9888;48.606;9.630;2022-08-19T01:26:11;42.80;;;31.97;;
19495;SDS011;9888;48.606;9.630;2022-08-19T01:28:46;41.60;;;31.70;;
19495;SDS011;9888;48.606;9.630;2022-08-19T01:31:18;40.43;;;31.30;;
19495;SDS011;9888;48.606;9.630;2022-08-19T01:33:50;42.90;;;33.63;;
19495;SDS011;9888;48.606;9.630;2022-08-19T01:39:16;42.10;;;32.60;;
19495;SDS011;9888;48.606;9.630;2022-08-19T01:41:48;42.60;;;30.60;;
19495;SDS011;9888;48.606;9.630;2022-08-19T01:44:16;40.17;;;31.17;;
19495;SDS011;9888;48.606;9.630;2022-08-19T01:46:48;40.37;;;31.90;;
19495;SDS011;9888;48.606;9.630;2022-08-19T01:49:18;40.90;;;32.20;;
19495;SDS011;9888;48.606;9.630;2022-08-19T01:51:47;38.23;;;30.77;;
19495;SDS011;9888;48.606;9.630;2022-08-19T01:54:17;46.53;;;33.30;;
19495;SDS011;9888;48.606;9.630;2022-08-19T01:56:47;41.17;;;33.03;;
19495;SDS011;9888;48.606;9.630;2022-08-19T01:59:15;43.87;;;32.77;;
19495;SDS011;9888;48.606;9.630;2022-08-19T02:01:44;44.37;;;33.17;;
19495;SDS011;9888;48.606;9.630;2022-08-19T02:04:13;43.10;;;34.13;;
19495;SDS011;9888;48.606;9.630;2022-08-19T02:06:41;41.93;;;32.97;;
19495;SDS011;9888;48.606;9.630;2022-08-19T02:09:09;41.63;;;31.67;;
19495;SDS011;9888;48.606;9.630;2022-08-19T02:11:40;47.00;;;33.30;;
19495;SDS011;9888;48.606;9.630;2022-08-19T02:14:08;41.10;;;31.10;;
19495;SDS011;9888;48.606;9.630;2022-08-19T02:16:35;41.63;;;32.20;;
19495;SDS011;9888;48.606;9.630;2022-08-19T02:19:05;41.17;;;31.80;;
19495;SDS011;9888;48.606;9.630;2022-08-19T02:21:32;41.37;;;32.47;;
19495;SDS011;9888;48.606;9.630;2022-08-19T02:24:00;43.50;;;30.83;;
19495;SDS011;9888;48.606;9.630;2022-08-19T02:26:34;40.10;;;30.70;;
19495;SDS011;9888;48.606;9.630;2022-08-19T02:29:02;38.30;;;30.47;;
19495;SDS011;9888;48.606;9.630;2022-08-19T02:31:30;39.63;;;29.57;;
19495;SDS011;9888;48.606;9.630;2022-08-19T02:33:57;42.10;;;32.50;;
19495;SDS011;9888;48.606;9.630;2022-08-19T02:36:24;43.60;;;31.53;;
19495;SDS011;9888;48.606;9.630;2022-08-19T02:38:53;40.37;;;30.57;;
19495;SDS011;9888;48.606;9.630;2022-08-19T02:41:22;39.80;;;30.20;;
19495;SDS011;9888;48.606;9.630;2022-08-19T02:43:56;43.00;;;31.50;;
19495;SDS011;9888;48.606;9.630;2022-08-19T02:46:26;41.80;;;30.63;;
19495;SDS011;9888;48.606;9.630;2022-08-19T02:48:57;40.10;;;30.10;;
19495;SDS011;9888;48.606;9.630;2022-08-19T02:51:34;39.50;;;30.20;;
19495;SDS011;9888;48.606;9.630;2022-08-19T02:54:04;39.40;;;30.43;;
19495;SDS011;9888;48.606;9.630;2022-08-19T02:56:39;41.40;;;31.47;;
19495;SDS011;9888;48.606;9.630;2022-08-19T02:59:14;41.10;;;32.00;;
19495;SDS011;9888;48.606;9.630;2022-08-19T03:01:41;38.50;;;29.30;;
19495;SDS011;9888;48.606;9.630;2022-08-19T03:04:11;39.57;;;30.17;;
19495;SDS011;9888;48.606;9.630;2022-08-19T03:06:43;38.30;;;30.00;;
19495;SDS011;9888;48.606;9.630;2022-08-19T03:09:13;41.43;;;30.30;;
19495;SDS011;9888;48.606;9.630;2022-08-19T03:11:41;39.20;;;29.23;;
19495;SDS011;9888;48.606;9.630;2022-08-19T03:14:08;39.13;;;29.03;;
19495;SDS011;9888;48.606;9.630;2022-08-19T03:16:41;40.20;;;29.80;;
19495;SDS011;9888;48.606;9.630;2022-08-19T03:19:13;40.47;;;29.37;;
19495;SDS011;9888;48.606;9.630;2022-08-19T03:21:43;40.77;;;30.10;;
19495;SDS011;9888;48.606;9.630;2022-08-19T03:24:12;43.77;;;29.70;;
19495;SDS011;9888;48.606;9.630;2022-08-19T03:26:42;39.30;;;30.43;;
19495;SDS011;9888;48.606;9.630;2022-08-19T03:29:12;39.00;;;29.47;;
19495;SDS011;9888;48.606;9.630;2022-08-19T03:31:43;40.70;;;29.33;;
19495;SDS011;9888;48.606;9.630;2022-08-19T03:34:14;41.00;;;30.63;;
19495;SDS011;9888;48.606;9.630;2022-08-19T03:36:45;43.83;;;31.20;;
19495;SDS011;9888;48.606;9.630;2022-08-19T03:39:17;44.60;;;29.60;;
19495;SDS011;9888;48.606;9.630;2022-08-19T03:41:45;42.97;;;31.90;;
19495;SDS011;9888;48.606;9.630;2022-08-19T03:44:19;44.93;;;29.70;;
19495;SDS011;9888;48.606;9.630;2022-08-19T03:46:50;44.60;;;30.57;;
19495;SDS011;9888;48.606;9.630;2022-08-19T03:49:23;39.80;;;28.93;;
19495;SDS011;9888;48.606;9.630;2022-08-19T03:51:53;38.50;;;28.90;;
19495;SDS011;9888;48.606;9.630;2022-08-19T03:54:22;41.27;;;30.00;;
19495;SDS011;9888;48.606;9.630;2022-08-19T03:56:52;40.40;;;29.30;;
19495;SDS011;9888;48.606;9.630;2022-08-19T03:59:23;39.70;;;28.40;;
19495;SDS011;9888;48.606;9.630;2022-08-19T04:01:55;40.50;;;29.27;;
19495;SDS011;9888;48.606;9.630;2022-08-19T04:04:24;41.80;;;30.67;;
19495;SDS011;9888;48.606;9.630;2022-08-19T04:06:56;41.07;;;29.10;;
19495;SDS011;9888;48.606;9.630;2022-08-19T04:09:26;41.87;;;29.63;;
19495;SDS011;9888;48.606;9.630;2022-08-19T04:11:53;43.53;;;30.17;;
19495;SDS011;9888;48.606;9.630;2022-08-19T04:17:17;44.50;;;30.47;;
19495;SDS011;9888;48.606;9.630;2022-08-19T04:19:47;44.53;;;30.47;;
19495;SDS011;9888;48.606;9.630;2022-08-19T04:22:18;42.00;;;30.17;;
19495;SDS011;9888;48.606;9.630;2022-08-19T04:24:48;47.33;;;31.60;;
19495;SDS011;9888;48.606;9.630;2022-08-19T04:27:15;45.27;;;31.57;;
19495;SDS011;9888;48.606;9.630;2022-08-19T04:29:43;42.00;;;29.50;;
19495;SDS011;9888;48.606;9.630;2022-08-19T04:32:10;50.47;;;31.93;;
19495;SDS011;9888;48.606;9.630;2022-08-19T04:34:40;50.87;;;31.13;;
19495;SDS011;9888;48.606;9.630;2022-08-19T04:37:08;46.17;;;31.80;;
19495;SDS011;9888;48.606;9.630;2022-08-19T04:42:52;44.50;;;31.63;;
19495;SDS011;9888;48.606;9.630;2022-08-19T04:45:22;48.67;;;33.10;;
19495;SDS011;9888;48.606;9.630;2022-08-19T04:47:55;77.90;;;34.63;;
19495;SDS011;9888;48.606;9.630;2022-08-19T04:50:25;45.23;;;32.30;;
19495;SDS011;9888;48.606;9.630;2022-08-19T04:52:52;57.53;;;36.33;;
19495;SDS011;9888;48.606;9.630;2022-08-19T04:55:21;51.40;;;35.17;;
19495;SDS011;9888;48.606;9.630;2022-08-19T04:57:51;55.40;;;37.00;;
19495;SDS011;9888;48.606;9.630;2022-08-19T05:00:25;53.30;;;34.70;;
19495;SDS011;9888;48.606;9.630;2022-08-19T05:03:00;53.67;;;32.83;;
19495;SDS011;9888;48.606;9.630;2022-08-19T05:05:32;62.90;;;43.50;;
19495;SDS011;9888;48.606;9.630;2022-08-19T05:08:01;51.23;;;34.90;;
19495;SDS011;9888;48.606;9.630;2022-08-19T05:10:29;47.27;;;33.27;;
19495;SDS011;9888;48.606;9.630;2022-08-19T05:13:07;47.07;;;33.23;;
19495;SDS011;9888;48.606;9.630;2022-08-19T05:16:15;58.43;;;35.23;;
19495;SDS011;9888;48.606;9.630;2022-08-19T05:22:08;48.00;;;30.70;;
19495;SDS011;9888;48.606;9.630;2022-08-19T05:24:55;44.30;;;31.20;;
19495;SDS011;9888;48.606;9.630;2022-08-19T05:34:10;45.03;;;31.43;;
19495;SDS011;9888;48.606;9.630;2022-08-19T05:36:40;53.93;;;34.57;;
19495;SDS011;9888;48.606;9.630;2022-08-19T05:39:10;48.13;;;33.10;;
19495;SDS011;9888;48.606;9.630;2022-08-19T05:45:12;57.57;;;34.53;;
19495;SDS011;9888;48.606;9.630;2022-08-19T05:47:41;52.67;;;34.53;;
19495;SDS011;9888;48.606;9.630;2022-08-19T05:50:11;49.67;;;33.30;;
19495;SDS011;9888;48.606;9.630;2022-08-19T05:52:41;52.40;;;33.83;;
19495;SDS011;9888;48.606;9.630;2022-08-19T05:55:08;51.63;;;35.77;;
19495;SDS011;9888;48.606;9.630;2022-08-19T05:57:42;58.83;;;34.93;;
19495;SDS011;9888;48.606;9.630;2022-08-19T06:00:12;49.53;;;36.03;;
19495;SDS011;9888;48.606;9.630;2022-08-19T06:02:47;49.83;;;33.93;;
19495;SDS011;9888;48.606;9.630;2022-08-19T06:05:22;57.53;;;35.87;;
19495;SDS011;9888;48.606;9.630;2022-08-19T06:07:54;53.40;;;36.87;;
19495;SDS011;9888;48.606;9.630;2022-08-19T06:10:22;52.97;;;36.00;;
19495;SDS011;9888;48.606;9.630;2022-08-19T06:13:11;49.17;;;33.90;;
19495;SDS011;9888;48.606;9.630;2022-08-19T06:22:23;50.67;;;34.17;;
19495;SDS011;9888;48.606;9.630;2022-08-19T06:24:52;48.03;;;34.93;;
19495;SDS011;9888;48.606;9.630;2022-08-19T06:27:22;48.07;;;32.93;;
19495;SDS011;9888;48.606;9.630;2022-08-19T06:29:58;47.27;;;33.30;;
19495;SDS011;9888;48.606;9.630;2022-08-19T06:32:47;49.47;;;35.23;;
19495;SDS011;9888;48.606;9.630;2022-08-19T06:35:15;52.80;;;35.07;;
19495;SDS011;9888;48.606;9.630;2022-08-19T06:37:43;48.37;;;34.57;;
19495;SDS011;9888;48.606;9.630;2022-08-19T06:40:11;53.83;;;35.37;;
19495;SDS011;9888;48.606;9.630;2022-08-19T06:42:50;49.73;;;35.23;;
19495;SDS011;9888;48.606;9.630;2022-08-19T06:45:18;50.23;;;35.23;;
19495;SDS011;9888;48.606;9.630;2022-08-19T06:47:46;55.17;;;37.00;;
19495;SDS011;9888;48.606;9.630;2022-08-19T06:50:14;60.83;;;39.60;;
19495;SDS011;9888;48.606;9.630;2022-08-19T06:52:46;57.30;;;39.00;;
19495;SDS011;9888;48.606;9.630;2022-08-19T06:55:13;57.23;;;38.40;;
19495;SDS011;9888;48.606;9.630;2022-08-19T06:57:42;60.27;;;38.47;;
19495;SDS011;9888;48.606;9.630;2022-08-19T07:00:14;56.63;;;38.10;;
19495;SDS011;9888;48.606;9.630;2022-08-19T07:02:43;58.53;;;40.27;;
19495;SDS011;9888;48.606;9.630;2022-08-19T07:05:12;62.50;;;37.83;;
19495;SDS011;9888;48.606;9.630;2022-08-19T07:07:50;67.23;;;41.80;;
19495;SDS011;9888;48.606;9.630;2022-08-19T07:10:19;58.00;;;38.37;;
19495;SDS011;9888;48.606;9.630;2022-08-19T07:12:49;58.17;;;38.77;;
19495;SDS011;9888;48.606;9.630;2022-08-19T07:15:18;64.80;;;41.00;;
19495;SDS011;9888;48.606;9.630;2022-08-19T07:17:47;68.10;;;41.23;;
19495;SDS011;9888;48.606;9.630;2022-08-19T07:20:17;59.37;;;40.77;;
19495;SDS011;9888;48.606;9.630;2022-08-19T07:22:44;64.40;;;41.93;;
19495;SDS011;9888;48.606;9.630;2022-08-19T07:25:18;60.90;;;40.43;;
19495;SDS011;9888;48.606;9.630;2022-08-19T07:27:50;65.77;;;39.90;;
19495;SDS011;9888;48.606;9.630;2022-08-19T07:30:20;66.90;;;40.13;;
19495;SDS011;9888;48.606;9.630;2022-08-19T07:32:49;61.03;;;38.87;;
19495;SDS011;9888;48.606;9.630;2022-08-19T07:35:18;60.00;;;40.07;;
19495;SDS011;9888;48.606;9.630;2022-08-19T07:37:47;58.07;;;38.80;;
19495;SDS011;9888;48.606;9.630;2022-08-19T07:40:15;58.80;;;39.80;;
19495;SDS011;9888;48.606;9.630;2022-08-19T07:42:43;61.00;;;40.10;;
19495;SDS011;9888;48.606;9.630;2022-08-19T07:45:14;61.50;;;40.07;;
19495;SDS011;9888;48.606;9.630;2022-08-19T07:47:41;60.90;;;40.27;;
19495;SDS011;9888;48.606;9.630;2022-08-19T07:50:14;58.73;;;39.47;;
19495;SDS011;9888;48.606;9.630;2022-08-19T07:52:45;60.10;;;39.30;;
19495;SDS011;9888;48.606;9.630;2022-08-19T07:55:15;67.17;;;38.80;;
19495;SDS011;9888;48.606;9.630;2022-08-19T07:57:46;68.40;;;40.50;;
19495;SDS011;9888;48.606;9.630;2022-08-19T08:00:14;56.93;;;37.77;;
19495;SDS011;9888;48.606;9.630;2022-08-19T08:02:44;61.43;;;39.60;;
19495;SDS011;9888;48.606;9.630;2022-08-19T08:05:15;61.53;;;38.50;;
19495;SDS011;9888;48.606;9.630;2022-08-19T08:08:02;63.13;;;39.13;;
19495;SDS011;9888;48.606;9.630;2022-08-19T08:10:49;68.63;;;42.37;;
19495;SDS011;9888;48.606;9.630;2022-08-19T08:13:17;64.13;;;41.87;;
19495;SDS011;9888;48.606;9.630;2022-08-19T08:15:46;69.33;;;42.10;;
19495;SDS011;9888;48.606;9.630;2022-08-19T08:18:13;62.10;;;40.50;;
19495;SDS011;9888;48.606;9.630;2022-08-19T08:20:43;65.07;;;40.97;;
19495;SDS011;9888;48.606;9.630;2022-08-19T08:23:10;64.23;;;40.40;;
19495;SDS011;9888;48.606;9.630;2022-08-19T08:25:56;60.27;;;40.00;;
19495;SDS011;9888;48.606;9.630;2022-08-19T08:28:25;60.07;;;40.00;;
19495;SDS011;9888;48.606;9.630;2022-08-19T08:30:55;58.80;;;38.63;;
19495;SDS011;9888;48.606;9.630;2022-08-19T08:33:26;57.13;;;38.40;;
19495;SDS011;9888;48.606;9.630;2022-08-19T08:35:57;58.17;;;39.97;;
19495;SDS011;9888;48.606;9.630;2022-08-19T08:38:25;62.00;;;39.00;;
19495;SDS011;9888;48.606;9.630;2022-08-19T08:40:57;53.10;;;36.23;;
19495;SDS011;9888;48.606;9.630;2022-08-19T08:43:35;52.97;;;36.33;;
19495;SDS011;9888;48.606;9.630;2022-08-19T08:46:16;64.93;;;37.97;;
19495;SDS011;9888;48.606;9.630;2022-08-19T08:52:06;55.63;;;37.40;;
19495;SDS011;9888;48.606;9.630;2022-08-19T08:54:52;61.23;;;38.57;;
19495;SDS011;9888;48.606;9.630;2022-08-19T09:00:03;58.60;;;37.87;;
19495;SDS011;9888;48.606;9.630;2022-08-19T09:02:34;61.27;;;39.17;;
19495;SDS011;9888;48.606;9.630;2022-08-19T09:05:02;60.53;;;40.10;;
19495;SDS011;9888;48.606;9.630;2022-08-19T09:07:45;60.80;;;40.53;;
19495;SDS011;9888;48.606;9.630;2022-08-19T09:10:39;56.07;;;38.77;;
19495;SDS011;9888;48.606;9.630;2022-08-19T09:16:05;63.20;;;40.10;;
19495;SDS011;9888;48.606;9.630;2022-08-19T09:18:43;57.50;;;40.67;;
19495;SDS011;9888;48.606;9.630;2022-08-19T09:21:13;61.73;;;40.70;;
19495;SDS011;9888;48.606;9.630;2022-08-19T09:23:42;67.90;;;41.60;;
19495;SDS011;9888;48.606;9.630;2022-08-19T09:26:10;66.47;;;41.60;;
19495;SDS011;9888;48.606;9.630;2022-08-19T09:28:41;66.53;;;43.80;;
19495;SDS011;9888;48.606;9.630;2022-08-19T09:31:15;65.47;;;42.43;;
19495;SDS011;9888;48.606;9.630;2022-08-19T09:33:45;67.13;;;42.40;;
19495;SDS011;9888;48.606;9.630;2022-08-19T09:36:14;68.50;;;44.63;;
19495;SDS011;9888;48.606;9.630;2022-08-19T09:38:44;75.33;;;44.70;;
19495;SDS011;9888;48.606;9.630;2022-08-19T09:41:15;62.30;;;41.80;;
19495;SDS011;9888;48.606;9.630;2022-08-19T09:43:50;75.93;;;46.23;;
19495;SDS011;9888;48.606;9.630;2022-08-19T09:46:22;61.20;;;40.00;;
19495;SDS011;9888;48.606;9.630;2022-08-19T09:48:52;69.70;;;42.37;;
19495;SDS011;9888;48.606;9.630;2022-08-19T09:51:23;65.97;;;41.97;;
19495;SDS011;9888;48.606;9.630;2022-08-19T09:53:53;77.57;;;47.07;;
19495;SDS011;9888;48.606;9.630;2022-08-19T09:56:26;63.80;;;42.70;;
19495;SDS011;9888;48.606;9.630;2022-08-19T09:58:54;65.87;;;42.70;;
19495;SDS011;9888;48.606;9.630;2022-08-19T10:01:25;69.37;;;40.90;;
19495;SDS011;9888;48.606;9.630;2022-08-19T10:03:55;65.13;;;40.67;;
19495;SDS011;9888;48.606;9.630;2022-08-19T10:06:25;60.80;;;40.10;;
19495;SDS011;9888;48.606;9.630;2022-08-19T10:08:57;73.37;;;44.43;;
19495;SDS011;9888;48.606;9.630;2022-08-19T10:11:26;62.53;;;39.90;;
19495;SDS011;9888;48.606;9.630;2022-08-19T10:13:54;57.27;;;39.60;;
19495;SDS011;9888;48.606;9.630;2022-08-19T10:16:23;68.17;;;41.90;;
19495;SDS011;9888;48.606;9.630;2022-08-19T10:18:51;57.90;;;37.47;;
19495;SDS011;9888;48.606;9.630;2022-08-19T10:21:23;61.33;;;38.53;;
19495;SDS011;9888;48.606;9.630;2022-08-19T10:23:53;50.30;;;36.60;;
19495;SDS011;9888;48.606;9.630;2022-08-19T10:26:27;50.57;;;35.17;;
19495;SDS011;9888;48.606;9.630;2022-08-19T10:28:58;63.97;;;37.47;;
19495;SDS011;9888;48.606;9.630;2022-08-19T10:31:28;57.10;;;36.93;;
19495;SDS011;9888;48.606;9.630;2022-08-19T10:33:59;50.10;;;35.80;;
19495;SDS011;9888;48.606;9.630;2022-08-19T10:36:31;57.60;;;35.63;;
19495;SDS011;9888;48.606;9.630;2022-08-19T10:39:02;81.93;;;38.53;;
19495;SDS011;9888;48.606;9.630;2022-08-19T10:41:37;49.50;;;36.07;;
19495;SDS011;9888;48.606;9.630;2022-08-19T10:44:07;59.30;;;36.40;;
19495;SDS011;9888;48.606;9.630;2022-08-19T10:46:48;63.03;;;40.47;;
19495;SDS011;9888;48.606;9.630;2022-08-19T10:49:25;54.13;;;35.77;;
19495;SDS011;9888;48.606;9.630;2022-08-19T10:51:55;53.90;;;37.60;;
19495;SDS011;9888;48.606;9.630;2022-08-19T10:54:41;58.50;;;37.37;;
19495;SDS011;9888;48.606;9.630;2022-08-19T10:57:30;57.23;;;37.07;;
19495;SDS011;9888;48.606;9.630;2022-08-19T10:59:59;59.47;;;36.80;;
19495;SDS011;9888;48.606;9.630;2022-08-19T11:02:27;58.83;;;37.93;;
19495;SDS011;9888;48.606;9.630;2022-08-19T11:04:58;62.40;;;38.90;;
19495;SDS011;9888;48.606;9.630;2022-08-19T11:07:25;54.67;;;37.47;;
19495;SDS011;9888;48.606;9.630;2022-08-19T11:09:54;52.27;;;38.40;;
19495;SDS011;9888;48.606;9.630;2022-08-19T11:12:21;54.00;;;37.37;;
19495;SDS011;9888;48.606;9.630;2022-08-19T11:14:49;56.77;;;37.90;;
19495;SDS011;9888;48.606;9.630;2022-08-19T11:17:18;59.30;;;38.60;;
19495;SDS011;9888;48.606;9.630;2022-08-19T11:19:45;51.63;;;36.53;;
19495;SDS011;9888;48.606;9.630;2022-08-19T11:22:15;54.10;;;36.47;;
19495;SDS011;9888;48.606;9.630;2022-08-19T11:24:43;52.07;;;36.33;;
19495;SDS011;9888;48.606;9.630;2022-08-19T11:27:10;54.07;;;36.27;;
19495;SDS011;9888;48.606;9.630;2022-08-19T11:29:39;51.33;;;36.17;;
19495;SDS011;9888;48.606;9.630;2022-08-19T11:32:09;53.70;;;35.30;;
19495;SDS011;9888;48.606;9.630;2022-08-19T11:34:42;58.23;;;37.00;;
19495;SDS011;9888;48.606;9.630;2022-08-19T11:37:11;52.37;;;36.50;;
19495;SDS011;9888;48.606;9.630;2022-08-19T11:39:39;49.00;;;36.10;;
19495;SDS011;9888;48.606;9.630;2022-08-19T11:42:09;49.93;;;36.80;;
19495;SDS011;9888;48.606;9.630;2022-08-19T11:44:59;50.60;;;36.83;;
19495;SDS011;9888;48.606;9.630;2022-08-19T11:47:28;50.97;;;36.43;;
19495;SDS011;9888;48.606;9.630;2022-08-19T11:50:07;52.73;;;38.50;;
19495;SDS011;9888;48.606;9.630;2022-08-19T11:52:38;50.97;;;38.43;;
19495;SDS011;9888;48.606;9.630;2022-08-19T11:55:12;54.97;;;38.70;;
19495;SDS011;9888;48.606;9.630;2022-08-19T11:57:42;53.37;;;36.23;;
19495;SDS011;9888;48.606;9.630;2022-08-19T12:00:12;48.90;;;37.17;;
19495;SDS011;9888;48.606;9.630;2022-08-19T12:02:42;51.17;;;37.53;;
19495;SDS011;9888;48.606;9.630;2022-08-19T12:05:11;50.50;;;37.20;;
19495;SDS011;9888;48.606;9.630;2022-08-19T12:07:39;47.93;;;36.83;;
19495;SDS011;9888;48.606;9.630;2022-08-19T12:10:09;52.27;;;37.60;;
19495;SDS011;9888;48.606;9.630;2022-08-19T12:12:37;50.43;;;37.60;;
19495;SDS011;9888;48.606;9.630;2022-08-19T12:15:11;56.20;;;39.53;;
19495;SDS011;9888;48.606;9.630;2022-08-19T12:17:40;53.00;;;38.33;;
19495;SDS011;9888;48.606;9.630;2022-08-19T12:20:11;52.00;;;38.20;;
19495;SDS011;9888;48.606;9.630;2022-08-19T12:22:41;55.53;;;40.37;;
19495;SDS011;9888;48.606;9.630;2022-08-19T12:25:11;48.07;;;34.53;;
19495;SDS011;9888;48.606;9.630;2022-08-19T12:27:39;38.30;;;28.60;;
19495;SDS011;9888;48.606;9.630;2022-08-19T12:30:09;40.60;;;29.50;;
19495;SDS011;9888;48.606;9.630;2022-08-19T12:32:43;38.73;;;28.70;;
19495;SDS011;9888;48.606;9.630;2022-08-19T12:35:11;38.57;;;29.17;;
19495;SDS011;9888;48.606;9.630;2022-08-19T12:37:38;38.77;;;29.20;;
19495;SDS011;9888;48.606;9.630;2022-08-19T12:40:10;40.70;;;29.83;;
19495;SDS011;9888;48.606;9.630;2022-08-19T12:42:43;42.27;;;29.70;;
19495;SDS011;9888;48.606;9.630;2022-08-19T12:45:12;40.63;;;30.33;;
19495;SDS011;9888;48.606;9.630;2022-08-19T12:47:47;43.83;;;31.30;;
19495;SDS011;9888;48.606;9.630;2022-08-19T12:50:18;39.33;;;29.77;;
19495;SDS011;9888;48.606;9.630;2022-08-19T12:52:47;42.40;;;30.73;;
19495;SDS011;9888;48.606;9.630;2022-08-19T12:55:15;37.13;;;28.50;;
19495;SDS011;9888;48.606;9.630;2022-08-19T12:57:44;41.53;;;30.33;;
19495;SDS011;9888;48.606;9.630;2022-08-19T13:00:14;40.27;;;29.50;;
19495;SDS011;9888;48.606;9.630;2022-08-19T13:02:45;37.50;;;27.40;;
19495;SDS011;9888;48.606;9.630;2022-08-19T13:05:17;40.77;;;28.60;;
19495;SDS011;9888;48.606;9.630;2022-08-19T13:07:49;39.03;;;27.80;;
19495;SDS011;9888;48.606;9.630;2022-08-19T13:10:20;35.07;;;27.97;;
19495;SDS011;9888;48.606;9.630;2022-08-19T13:12:55;38.20;;;28.10;;
19495;SDS011;9888;48.606;9.630;2022-08-19T13:15:25;35.53;;;26.93;;
19495;SDS011;9888;48.606;9.630;2022-08-19T13:17:55;35.27;;;26.03;;
19495;SDS011;9888;48.606;9.630;2022-08-19T13:20:24;39.70;;;28.27;;
19495;SDS011;9888;48.606;9.630;2022-08-19T13:22:54;33.43;;;25.90;;
19495;SDS011;9888;48.606;9.630;2022-08-19T13:25:24;38.40;;;28.27;;
19495;SDS011;9888;48.606;9.630;2022-08-19T13:31:17;31.93;;;25.00;;
19495;SDS011;9888;48.606;9.630;2022-08-19T13:34:06;32.40;;;24.27;;
19495;SDS011;9888;48.606;9.630;2022-08-19T13:36:40;33.93;;;26.23;;
19495;SDS011;9888;48.606;9.630;2022-08-19T13:39:15;33.20;;;25.43;;
19495;SDS011;9888;48.606;9.630;2022-08-19T13:41:49;33.50;;;26.30;;
19495;SDS011;9888;48.606;9.630;2022-08-19T13:44:20;34.43;;;27.50;;
19495;SDS011;9888;48.606;9.630;2022-08-19T13:46:50;31.57;;;24.87;;
19495;SDS011;9888;48.606;9.630;2022-08-19T13:49:37;30.90;;;24.20;;
19495;SDS011;9888;48.606;9.630;2022-08-19T13:52:07;32.10;;;25.50;;
19495;SDS011;9888;48.606;9.630;2022-08-19T13:57:56;40.87;;;26.60;;
19495;SDS011;9888;48.606;9.630;2022-08-19T14:06:34;30.37;;;23.37;;
19495;SDS011;9888;48.606;9.630;2022-08-19T14:09:02;30.97;;;23.20;;
19495;SDS011;9888;48.606;9.630;2022-08-19T14:11:31;31.30;;;24.30;;
19495;SDS011;9888;48.606;9.630;2022-08-19T14:14:00;31.33;;;24.23;;
19495;SDS011;9888;48.606;9.630;2022-08-19T14:16:29;31.27;;;24.73;;
19495;SDS011;9888;48.606;9.630;2022-08-19T14:18:57;34.33;;;25.80;;
19495;SDS011;9888;48.606;9.630;2022-08-19T14:21:26;30.67;;;24.83;;
19495;SDS011;9888;48.606;9.630;2022-08-19T14:23:59;29.27;;;23.80;;
19495;SDS011;9888;48.606;9.630;2022-08-19T14:26:32;33.87;;;24.70;;
19495;SDS011;9888;48.606;9.630;2022-08-19T14:29:03;32.40;;;24.03;;
19495;SDS011;9888;48.606;9.630;2022-08-19T14:31:32;32.13;;;25.40;;
19495;SDS011;9888;48.606;9.630;2022-08-19T14:34:03;31.10;;;25.40;;
19495;SDS011;9888;48.606;9.630;2022-08-19T14:36:45;29.80;;;24.70;;
19495;SDS011;9888;48.606;9.630;2022-08-19T14:39:37;29.60;;;23.60;;
19495;SDS011;9888;48.606;9.630;2022-08-19T14:42:23;27.80;;;22.80;;
19495;SDS011;9888;48.606;9.630;2022-08-19T14:44:52;34.40;;;24.47;;
19495;SDS011;9888;48.606;9.630;2022-08-19T14:47:27;29.50;;;23.53;;
19495;SDS011;9888;48.606;9.630;2022-08-19T14:50:01;30.23;;;23.70;;
19495;SDS011;9888;48.606;9.630;2022-08-19T14:52:35;28.43;;;22.40;;
19495;SDS011;9888;48.606;9.630;2022-08-19T14:55:14;28.97;;;24.30;;
19495;SDS011;9888;48.606;9.630;2022-08-19T14:58:04;31.23;;;23.70;;
19495;SDS011;9888;48.606;9.630;2022-08-19T15:00:39;31.10;;;23.23;;
19495;SDS011;9888;48.606;9.630;2022-08-19T15:03:25;30.50;;;23.10;;
19495;SDS011;9888;48.606;9.630;2022-08-19T15:05:55;28.17;;;23.10;;
19495;SDS011;9888;48.606;9.630;2022-08-19T15:08:25;29.93;;;24.70;;
19495;SDS011;9888;48.606;9.630;2022-08-19T15:11:06;40.03;;;25.83;;
19495;SDS011;9888;48.606;9.630;2022-08-19T15:13:48;35.23;;;24.10;;
19495;SDS011;9888;48.606;9.630;2022-08-19T15:16:23;35.40;;;24.00;;
19495;SDS011;9888;48.606;9.630;2022-08-19T15:19:02;27.80;;;21.00;;
19495;SDS011;9888;48.606;9.630;2022-08-19T15:21:31;28.17;;;21.53;;
19495;SDS011;9888;48.606;9.630;2022-08-19T15:23:59;27.17;;;22.40;;
19495;SDS011;9888;48.606;9.630;2022-08-19T15:26:27;25.67;;;21.00;;
19495;SDS011;9888;48.606;9.630;2022-08-19T15:28:59;26.60;;;21.90;;
19495;SDS011;9888;48.606;9.630;2022-08-19T15:31:27;28.13;;;22.60;;
19495;SDS011;9888;48.606;9.630;2022-08-19T15:34:00;28.83;;;23.27;;
19495;SDS011;9888;48.606;9.630;2022-08-19T15:36:28;29.30;;;22.83;;
19495;SDS011;9888;48.606;9.630;2022-08-19T15:38:57;29.57;;;23.83;;
19495;SDS011;9888;48.606;9.630;2022-08-19T15:41:26;28.60;;;23.30;;
19495;SDS011;9888;48.606;9.630;2022-08-19T15:43:57;30.20;;;24.63;;
19495;SDS011;9888;48.606;9.630;2022-08-19T15:46:32;30.07;;;23.70;;
19495;SDS011;9888;48.606;9.630;2022-08-19T15:49:04;34.70;;;23.50;;